sensor_id;sensor_type;location;lat;lon;timestamp;P1;durP1;ratioP1;P2;durP2;ratioP2
73951;SDS011;62304;47.662;18.324;2023-03-26T00:03:00;3.37;;;0.50;;
73951;SDS011;62304;47.662;18.324;2023-03-26T00:06:04;2.83;;;0.40;;
73951;SDS011;62304;47.662;18.324;2023-03-26T00:09:14;3.47;;;0.50;;
73951;SDS011;62304;47.662;18.324;2023-03-26T00:12:18;3.55;;;0.60;;
73951;SDS011;62304;47.662;18.324;2023-03-26T00:15:21;2.67;;;0.50;;
73951;SDS011;62304;47.662;18.324;2023-03-26T00:18:24;3.73;;;0.43;;
73951;SDS011;62304;47.662;18.324;2023-03-26T00:21:32;4.05;;;0.90;;
73951;SDS011;62304;47.662;18.324;2023-03-26T00:24:35;3.55;;;0.80;;
73951;SDS011;62304;47.662;18.324;2023-03-26T00:27:38;3.75;;;0.93;;
73951;SDS011;62304;47.662;18.324;2023-03-26T00:30:43;4.00;;;1.02;;
73951;SDS011;62304;47.662;18.324;2023-03-26T00:33:46;4.47;;;0.83;;
73951;SDS011;62304;47.662;18.324;2023-03-26T00:36:49;3.62;;;0.90;;
73951;SDS011;62304;47.662;18.324;2023-03-26T00:39:56;3.45;;;0.88;;
73951;SDS011;62304;47.662;18.324;2023-03-26T00:43:11;3.12;;;0.90;;
73951;SDS011;62304;47.662;18.324;2023-03-26T00:46:20;3.10;;;0.90;;
73951;SDS011;62304;47.662;18.324;2023-03-26T00:49:25;3.37;;;0.70;;
73951;SDS011;62304;47.662;18.324;2023-03-26T00:52:28;3.67;;;0.73;;
73951;SDS011;62304;47.662;18.324;2023-03-26T00:55:31;3.95;;;1.08;;
73951;SDS011;62304;47.662;18.324;2023-03-26T00:58:34;5.18;;;0.90;;
73951;SDS011;62304;47.662;18.324;2023-03-26T01:01:37;4.15;;;0.80;;
73951;SDS011;62304;47.662;18.324;2023-03-26T01:04:45;3.33;;;0.70;;
73951;SDS011;62304;47.662;18.324;2023-03-26T01:08:09;5.95;;;1.17;;
73951;SDS011;62304;47.662;18.324;2023-03-26T01:11:21;6.68;;;1.00;;
73951;SDS011;62304;47.662;18.324;2023-03-26T01:14:27;4.03;;;0.80;;
73951;SDS011;62304;47.662;18.324;2023-03-26T01:17:31;6.65;;;1.40;;
73951;SDS011;62304;47.662;18.324;2023-03-26T01:20:35;6.40;;;1.17;;
73951;SDS011;62304;47.662;18.324;2023-03-26T01:23:54;5.15;;;0.90;;
73951;SDS011;62304;47.662;18.324;2023-03-26T01:27:16;3.45;;;0.90;;
73951;SDS011;62304;47.662;18.324;2023-03-26T01:30:23;3.47;;;0.70;;
73951;SDS011;62304;47.662;18.324;2023-03-26T01:33:34;4.07;;;0.73;;
73951;SDS011;62304;47.662;18.324;2023-03-26T01:40:32;3.03;;;0.40;;
73951;SDS011;62304;47.662;18.324;2023-03-26T01:43:52;3.30;;;0.80;;
73951;SDS011;62304;47.662;18.324;2023-03-26T01:47:02;4.12;;;0.75;;
73951;SDS011;62304;47.662;18.324;2023-03-26T01:50:07;5.20;;;0.62;;
73951;SDS011;62304;47.662;18.324;2023-03-26T01:53:11;6.53;;;0.83;;
73951;SDS011;62304;47.662;18.324;2023-03-26T01:56:27;4.50;;;1.00;;
73951;SDS011;62304;47.662;18.324;2023-03-26T02:03:21;3.97;;;0.70;;
73951;SDS011;62304;47.662;18.324;2023-03-26T02:06:49;3.70;;;0.70;;
73951;SDS011;62304;47.662;18.324;2023-03-26T02:10:11;6.27;;;1.10;;
73951;SDS011;62304;47.662;18.324;2023-03-26T02:13:19;4.90;;;0.90;;
73951;SDS011;62304;47.662;18.324;2023-03-26T02:16:22;4.65;;;0.90;;
73951;SDS011;62304;47.662;18.324;2023-03-26T02:19:25;5.70;;;0.90;;
73951;SDS011;62304;47.662;18.324;2023-03-26T02:22:28;6.25;;;0.93;;
73951;SDS011;62304;47.662;18.324;2023-03-26T02:25:32;3.77;;;0.80;;
73951;SDS011;62304;47.662;18.324;2023-03-26T02:28:36;7.45;;;0.77;;
73951;SDS011;62304;47.662;18.324;2023-03-26T02:31:40;4.15;;;1.08;;
73951;SDS011;62304;47.662;18.324;2023-03-26T02:34:43;6.70;;;0.70;;
73951;SDS011;62304;47.662;18.324;2023-03-26T02:37:46;4.43;;;1.10;;
73951;SDS011;62304;47.662;18.324;2023-03-26T02:40:52;4.27;;;0.80;;
73951;SDS011;62304;47.662;18.324;2023-03-26T02:43:58;2.85;;;0.68;;
73951;SDS011;62304;47.662;18.324;2023-03-26T02:47:03;3.83;;;0.90;;
73951;SDS011;62304;47.662;18.324;2023-03-26T02:50:08;3.53;;;0.62;;
73951;SDS011;62304;47.662;18.324;2023-03-26T02:53:17;3.17;;;0.60;;
73951;SDS011;62304;47.662;18.324;2023-03-26T02:56:22;3.57;;;0.80;;
73951;SDS011;62304;47.662;18.324;2023-03-26T02:59:26;3.45;;;0.70;;
73951;SDS011;62304;47.662;18.324;2023-03-26T03:02:30;3.15;;;0.57;;
73951;SDS011;62304;47.662;18.324;2023-03-26T03:05:34;3.55;;;0.68;;
73951;SDS011;62304;47.662;18.324;2023-03-26T03:08:40;3.12;;;0.57;;
73951;SDS011;62304;47.662;18.324;2023-03-26T03:11:44;3.17;;;0.60;;
73951;SDS011;62304;47.662;18.324;2023-03-26T03:14:47;3.90;;;1.17;;
73951;SDS011;62304;47.662;18.324;2023-03-26T03:17:50;4.05;;;0.60;;
73951;SDS011;62304;47.662;18.324;2023-03-26T03:20:53;4.72;;;0.98;;
73951;SDS011;62304;47.662;18.324;2023-03-26T03:23:56;4.57;;;0.50;;
73951;SDS011;62304;47.662;18.324;2023-03-26T03:27:02;2.90;;;0.40;;
73951;SDS011;62304;47.662;18.324;2023-03-26T03:30:06;3.62;;;0.70;;
73951;SDS011;62304;47.662;18.324;2023-03-26T03:33:15;3.37;;;0.82;;
73951;SDS011;62304;47.662;18.324;2023-03-26T03:36:21;4.37;;;0.90;;
73951;SDS011;62304;47.662;18.324;2023-03-26T03:39:25;3.28;;;0.68;;
73951;SDS011;62304;47.662;18.324;2023-03-26T03:42:28;4.07;;;0.73;;
73951;SDS011;62304;47.662;18.324;2023-03-26T03:45:32;4.97;;;0.80;;
73951;SDS011;62304;47.662;18.324;2023-03-26T03:48:36;2.70;;;0.55;;
73951;SDS011;62304;47.662;18.324;2023-03-26T03:51:42;2.62;;;0.50;;
73951;SDS011;62304;47.662;18.324;2023-03-26T03:54:45;4.05;;;1.02;;
73951;SDS011;62304;47.662;18.324;2023-03-26T03:57:49;6.20;;;1.30;;
73951;SDS011;62304;47.662;18.324;2023-03-26T04:00:54;7.37;;;2.53;;
73951;SDS011;62304;47.662;18.324;2023-03-26T04:04:06;3.28;;;0.80;;
73951;SDS011;62304;47.662;18.324;2023-03-26T04:07:12;3.75;;;0.80;;
73951;SDS011;62304;47.662;18.324;2023-03-26T04:10:16;2.80;;;0.60;;
73951;SDS011;62304;47.662;18.324;2023-03-26T04:13:21;4.93;;;1.90;;
73951;SDS011;62304;47.662;18.324;2023-03-26T04:16:25;5.03;;;0.77;;
73951;SDS011;62304;47.662;18.324;2023-03-26T04:19:29;16.30;;;5.28;;
73951;SDS011;62304;47.662;18.324;2023-03-26T04:22:32;16.23;;;5.82;;
73951;SDS011;62304;47.662;18.324;2023-03-26T04:25:37;17.87;;;5.95;;
73951;SDS011;62304;47.662;18.324;2023-03-26T04:28:41;115.50;;;36.90;;
73951;SDS011;62304;47.662;18.324;2023-03-26T04:31:50;149.65;;;40.58;;
73951;SDS011;62304;47.662;18.324;2023-03-26T04:35:00;158.63;;;41.58;;
73951;SDS011;62304;47.662;18.324;2023-03-26T04:38:08;97.50;;;26.15;;
73951;SDS011;62304;47.662;18.324;2023-03-26T04:41:13;63.83;;;18.30;;
73951;SDS011;62304;47.662;18.324;2023-03-26T04:44:17;26.30;;;8.00;;
73951;SDS011;62304;47.662;18.324;2023-03-26T04:47:24;29.52;;;8.80;;
73951;SDS011;62304;47.662;18.324;2023-03-26T04:50:27;48.40;;;15.57;;
73951;SDS011;62304;47.662;18.324;2023-03-26T04:53:30;26.77;;;9.15;;
73951;SDS011;62304;47.662;18.324;2023-03-26T05:00:12;12.20;;;3.33;;
73951;SDS011;62304;47.662;18.324;2023-03-26T05:03:18;14.60;;;3.22;;
73951;SDS011;62304;47.662;18.324;2023-03-26T05:06:25;6.95;;;1.80;;
73951;SDS011;62304;47.662;18.324;2023-03-26T05:09:38;6.22;;;2.08;;
73951;SDS011;62304;47.662;18.324;2023-03-26T05:12:42;11.15;;;2.97;;
73951;SDS011;62304;47.662;18.324;2023-03-26T05:15:46;8.40;;;2.80;;
73951;SDS011;62304;47.662;18.324;2023-03-26T05:18:49;10.20;;;3.37;;
73951;SDS011;62304;47.662;18.324;2023-03-26T05:21:53;9.00;;;4.20;;
73951;SDS011;62304;47.662;18.324;2023-03-26T05:24:56;13.88;;;5.68;;
73951;SDS011;62304;47.662;18.324;2023-03-26T05:27:59;14.20;;;5.45;;
73951;SDS011;62304;47.662;18.324;2023-03-26T05:31:04;10.00;;;4.40;;
73951;SDS011;62304;47.662;18.324;2023-03-26T05:34:08;10.82;;;3.80;;
73951;SDS011;62304;47.662;18.324;2023-03-26T05:37:12;4.55;;;2.05;;
73951;SDS011;62304;47.662;18.324;2023-03-26T05:40:16;7.85;;;2.83;;
73951;SDS011;62304;47.662;18.324;2023-03-26T05:43:20;9.60;;;3.30;;
73951;SDS011;62304;47.662;18.324;2023-03-26T05:46:23;6.23;;;1.47;;
73951;SDS011;62304;47.662;18.324;2023-03-26T05:49:26;3.75;;;0.95;;
73951;SDS011;62304;47.662;18.324;2023-03-26T05:52:29;4.35;;;0.90;;
73951;SDS011;62304;47.662;18.324;2023-03-26T05:55:42;4.90;;;0.82;;
73951;SDS011;62304;47.662;18.324;2023-03-26T05:58:58;5.32;;;0.90;;
73951;SDS011;62304;47.662;18.324;2023-03-26T06:02:01;4.23;;;0.87;;
73951;SDS011;62304;47.662;18.324;2023-03-26T06:05:06;4.55;;;0.93;;
73951;SDS011;62304;47.662;18.324;2023-03-26T06:08:10;3.00;;;0.50;;
73951;SDS011;62304;47.662;18.324;2023-03-26T06:11:13;2.55;;;0.47;;
73951;SDS011;62304;47.662;18.324;2023-03-26T06:14:17;4.72;;;0.80;;
73951;SDS011;62304;47.662;18.324;2023-03-26T06:17:22;3.87;;;0.87;;
73951;SDS011;62304;47.662;18.324;2023-03-26T06:20:27;4.82;;;0.80;;
73951;SDS011;62304;47.662;18.324;2023-03-26T06:23:30;3.12;;;0.75;;
73951;SDS011;62304;47.662;18.324;2023-03-26T06:26:34;5.00;;;1.17;;
73951;SDS011;62304;47.662;18.324;2023-03-26T06:29:39;3.92;;;0.80;;
73951;SDS011;62304;47.662;18.324;2023-03-26T06:32:43;3.83;;;1.20;;
73951;SDS011;62304;47.662;18.324;2023-03-26T06:35:47;3.85;;;1.05;;
73951;SDS011;62304;47.662;18.324;2023-03-26T06:38:50;4.30;;;1.20;;
73951;SDS011;62304;47.662;18.324;2023-03-26T06:41:53;4.37;;;1.05;;
73951;SDS011;62304;47.662;18.324;2023-03-26T06:44:57;2.40;;;0.40;;
73951;SDS011;62304;47.662;18.324;2023-03-26T06:48:03;7.57;;;0.90;;
73951;SDS011;62304;47.662;18.324;2023-03-26T06:51:09;2.60;;;0.50;;
73951;SDS011;62304;47.662;18.324;2023-03-26T06:54:16;3.58;;;0.85;;
73951;SDS011;62304;47.662;18.324;2023-03-26T06:57:19;3.28;;;0.80;;
73951;SDS011;62304;47.662;18.324;2023-03-26T07:00:26;3.10;;;0.65;;
73951;SDS011;62304;47.662;18.324;2023-03-26T07:03:35;4.07;;;1.10;;
73951;SDS011;62304;47.662;18.324;2023-03-26T07:06:48;4.05;;;1.30;;
73951;SDS011;62304;47.662;18.324;2023-03-26T07:10:00;2.87;;;0.90;;
73951;SDS011;62304;47.662;18.324;2023-03-26T07:13:07;3.60;;;1.15;;
73951;SDS011;62304;47.662;18.324;2023-03-26T07:16:11;3.20;;;1.12;;
73951;SDS011;62304;47.662;18.324;2023-03-26T07:19:16;3.23;;;1.20;;
73951;SDS011;62304;47.662;18.324;2023-03-26T07:22:20;2.87;;;0.90;;
73951;SDS011;62304;47.662;18.324;2023-03-26T07:25:28;5.25;;;1.95;;
73951;SDS011;62304;47.662;18.324;2023-03-26T07:32:15;2.83;;;0.93;;
73951;SDS011;62304;47.662;18.324;2023-03-26T07:35:48;4.60;;;1.07;;
73951;SDS011;62304;47.662;18.324;2023-03-26T07:45:47;5.03;;;0.70;;
73951;SDS011;62304;47.662;18.324;2023-03-26T07:48:51;2.37;;;0.50;;
73951;SDS011;62304;47.662;18.324;2023-03-26T07:51:56;3.57;;;0.80;;
73951;SDS011;62304;47.662;18.324;2023-03-26T07:55:00;2.05;;;0.40;;
73951;SDS011;62304;47.662;18.324;2023-03-26T07:58:23;3.70;;;1.10;;
73951;SDS011;62304;47.662;18.324;2023-03-26T08:11:34;2.50;;;0.52;;
73951;SDS011;62304;47.662;18.324;2023-03-26T08:18:16;4.93;;;1.20;;
73951;SDS011;62304;47.662;18.324;2023-03-26T08:21:27;3.65;;;1.30;;
73951;SDS011;62304;47.662;18.324;2023-03-26T08:24:38;5.60;;;1.37;;
73951;SDS011;62304;47.662;18.324;2023-03-26T08:31:06;3.83;;;1.40;;
73951;SDS011;62304;47.662;18.324;2023-03-26T08:34:12;3.95;;;1.20;;
73951;SDS011;62304;47.662;18.324;2023-03-26T08:37:16;2.80;;;0.90;;
73951;SDS011;62304;47.662;18.324;2023-03-26T08:50:35;5.10;;;1.20;;
73951;SDS011;62304;47.662;18.324;2023-03-26T08:54:07;4.80;;;1.55;;
73951;SDS011;62304;47.662;18.324;2023-03-26T09:11:06;3.30;;;1.00;;
73951;SDS011;62304;47.662;18.324;2023-03-26T09:34:49;4.47;;;0.90;;
73951;SDS011;62304;47.662;18.324;2023-03-26T09:37:59;3.20;;;1.20;;
73951;SDS011;62304;47.662;18.324;2023-03-26T10:01:23;3.42;;;1.30;;
73951;SDS011;62304;47.662;18.324;2023-03-26T10:12:04;3.65;;;1.20;;
73951;SDS011;62304;47.662;18.324;2023-03-26T10:28:28;3.70;;;0.90;;
73951;SDS011;62304;47.662;18.324;2023-03-26T10:31:42;4.03;;;0.60;;
73951;SDS011;62304;47.662;18.324;2023-03-26T10:54:54;2.20;;;0.43;;
73951;SDS011;62304;47.662;18.324;2023-03-26T10:58:24;2.70;;;0.77;;
73951;SDS011;62304;47.662;18.324;2023-03-26T11:05:40;2.80;;;1.00;;
73951;SDS011;62304;47.662;18.324;2023-03-26T11:12:20;3.23;;;0.70;;
73951;SDS011;62304;47.662;18.324;2023-03-26T11:18:57;2.50;;;0.60;;
73951;SDS011;62304;47.662;18.324;2023-03-26T11:25:28;2.78;;;1.00;;
73951;SDS011;62304;47.662;18.324;2023-03-26T11:35:49;2.60;;;0.80;;
73951;SDS011;62304;47.662;18.324;2023-03-26T11:38:55;3.55;;;0.80;;
73951;SDS011;62304;47.662;18.324;2023-03-26T11:42:11;2.25;;;0.55;;
73951;SDS011;62304;47.662;18.324;2023-03-26T11:45:18;2.07;;;0.53;;
73951;SDS011;62304;47.662;18.324;2023-03-26T11:48:30;2.70;;;0.70;;
73951;SDS011;62304;47.662;18.324;2023-03-26T11:51:38;2.40;;;0.70;;
73951;SDS011;62304;47.662;18.324;2023-03-26T11:54:44;2.47;;;0.70;;
73951;SDS011;62304;47.662;18.324;2023-03-26T11:57:52;2.05;;;0.40;;
73951;SDS011;62304;47.662;18.324;2023-03-26T12:01:02;2.70;;;0.73;;
73951;SDS011;62304;47.662;18.324;2023-03-26T12:04:11;2.30;;;0.70;;
73951;SDS011;62304;47.662;18.324;2023-03-26T12:07:17;2.50;;;0.60;;
73951;SDS011;62304;47.662;18.324;2023-03-26T12:10:33;2.80;;;0.57;;
73951;SDS011;62304;47.662;18.324;2023-03-26T12:13:44;3.87;;;0.90;;
73951;SDS011;62304;47.662;18.324;2023-03-26T12:23:41;2.65;;;0.90;;
73951;SDS011;62304;47.662;18.324;2023-03-26T12:27:20;1.92;;;0.45;;
73951;SDS011;62304;47.662;18.324;2023-03-26T12:30:31;2.10;;;0.50;;
73951;SDS011;62304;47.662;18.324;2023-03-26T12:33:38;3.20;;;1.03;;
73951;SDS011;62304;47.662;18.324;2023-03-26T12:36:49;3.70;;;1.27;;
73951;SDS011;62304;47.662;18.324;2023-03-26T12:40:05;3.03;;;0.90;;
73951;SDS011;62304;47.662;18.324;2023-03-26T12:47:09;2.10;;;0.57;;
73951;SDS011;62304;47.662;18.324;2023-03-26T12:58:09;2.37;;;0.52;;
73951;SDS011;62304;47.662;18.324;2023-03-26T13:01:33;2.30;;;0.60;;
73951;SDS011;62304;47.662;18.324;2023-03-26T13:04:54;3.17;;;0.80;;
73951;SDS011;62304;47.662;18.324;2023-03-26T13:08:38;2.90;;;0.60;;
73951;SDS011;62304;47.662;18.324;2023-03-26T13:15:37;5.87;;;0.60;;
73951;SDS011;62304;47.662;18.324;2023-03-26T13:18:51;3.83;;;0.60;;
73951;SDS011;62304;47.662;18.324;2023-03-26T13:22:36;2.10;;;0.52;;
73951;SDS011;62304;47.662;18.324;2023-03-26T13:29:01;3.62;;;1.08;;
73951;SDS011;62304;47.662;18.324;2023-03-26T13:33:03;2.50;;;0.70;;
73951;SDS011;62304;47.662;18.324;2023-03-26T13:43:04;4.00;;;0.60;;
73951;SDS011;62304;47.662;18.324;2023-03-26T13:46:50;2.40;;;0.47;;
73951;SDS011;62304;47.662;18.324;2023-03-26T13:49:54;2.35;;;0.55;;
73951;SDS011;62304;47.662;18.324;2023-03-26T13:53:08;2.47;;;0.60;;
73951;SDS011;62304;47.662;18.324;2023-03-26T13:56:23;2.22;;;0.50;;
73951;SDS011;62304;47.662;18.324;2023-03-26T14:02:42;3.97;;;0.60;;
73951;SDS011;62304;47.662;18.324;2023-03-26T14:05:50;4.05;;;1.20;;
73951;SDS011;62304;47.662;18.324;2023-03-26T14:08:58;3.08;;;0.60;;
73951;SDS011;62304;47.662;18.324;2023-03-26T14:15:40;3.80;;;0.77;;
73951;SDS011;62304;47.662;18.324;2023-03-26T14:19:17;3.30;;;0.75;;
73951;SDS011;62304;47.662;18.324;2023-03-26T14:35:57;2.35;;;0.70;;
73951;SDS011;62304;47.662;18.324;2023-03-26T14:39:38;2.58;;;0.77;;
73951;SDS011;62304;47.662;18.324;2023-03-26T14:46:48;4.35;;;1.02;;
73951;SDS011;62304;47.662;18.324;2023-03-26T14:53:34;4.78;;;0.88;;
73951;SDS011;62304;47.662;18.324;2023-03-26T14:56:56;3.85;;;0.70;;
73951;SDS011;62304;47.662;18.324;2023-03-26T15:10:53;3.53;;;0.90;;
73951;SDS011;62304;47.662;18.324;2023-03-26T15:28:09;4.78;;;0.90;;
73951;SDS011;62304;47.662;18.324;2023-03-26T15:32:10;3.83;;;1.17;;
73951;SDS011;62304;47.662;18.324;2023-03-26T15:42:22;4.00;;;0.70;;
73951;SDS011;62304;47.662;18.324;2023-03-26T15:49:15;3.45;;;0.90;;
73951;SDS011;62304;47.662;18.324;2023-03-26T15:52:41;6.22;;;2.05;;
73951;SDS011;62304;47.662;18.324;2023-03-26T15:56:06;4.05;;;1.33;;
73951;SDS011;62304;47.662;18.324;2023-03-26T16:02:40;3.30;;;0.88;;
73951;SDS011;62304;47.662;18.324;2023-03-26T16:06:03;3.30;;;0.90;;
73951;SDS011;62304;47.662;18.324;2023-03-26T16:16:23;4.30;;;1.30;;
73951;SDS011;62304;47.662;18.324;2023-03-26T16:19:57;3.15;;;1.10;;
73951;SDS011;62304;47.662;18.324;2023-03-26T16:23:32;5.03;;;1.27;;
73951;SDS011;62304;47.662;18.324;2023-03-26T16:30:28;5.35;;;1.30;;
73951;SDS011;62304;47.662;18.324;2023-03-26T16:33:43;4.20;;;1.00;;
73951;SDS011;62304;47.662;18.324;2023-03-26T16:37:01;5.53;;;1.80;;
73951;SDS011;62304;47.662;18.324;2023-03-26T16:43:45;4.20;;;1.20;;
73951;SDS011;62304;47.662;18.324;2023-03-26T16:47:27;4.60;;;1.80;;
73951;SDS011;62304;47.662;18.324;2023-03-26T16:53:58;4.87;;;1.30;;
73951;SDS011;62304;47.662;18.324;2023-03-26T17:04:17;6.80;;;2.92;;
73951;SDS011;62304;47.662;18.324;2023-03-26T17:07:34;5.70;;;1.93;;
73951;SDS011;62304;47.662;18.324;2023-03-26T17:17:54;4.50;;;1.58;;
73951;SDS011;62304;47.662;18.324;2023-03-26T17:35:14;5.18;;;1.45;;
73951;SDS011;62304;47.662;18.324;2023-03-26T17:45:18;6.15;;;2.50;;
73951;SDS011;62304;47.662;18.324;2023-03-26T17:48:24;6.03;;;2.50;;
73951;SDS011;62304;47.662;18.324;2023-03-26T17:54:41;4.72;;;1.98;;
73951;SDS011;62304;47.662;18.324;2023-03-26T17:57:55;3.67;;;1.60;;
73951;SDS011;62304;47.662;18.324;2023-03-26T18:04:34;5.30;;;1.60;;
73951;SDS011;62304;47.662;18.324;2023-03-26T18:14:52;6.77;;;2.37;;
73951;SDS011;62304;47.662;18.324;2023-03-26T18:21:34;8.20;;;2.50;;
73951;SDS011;62304;47.662;18.324;2023-03-26T18:24:41;4.68;;;2.17;;
73951;SDS011;62304;47.662;18.324;2023-03-26T18:27:47;4.70;;;2.00;;
73951;SDS011;62304;47.662;18.324;2023-03-26T18:30:53;6.90;;;1.70;;
73951;SDS011;62304;47.662;18.324;2023-03-26T18:33:58;5.07;;;1.23;;
73951;SDS011;62304;47.662;18.324;2023-03-26T18:37:28;3.85;;;1.50;;
73951;SDS011;62304;47.662;18.324;2023-03-26T18:40:41;6.50;;;2.42;;
73951;SDS011;62304;47.662;18.324;2023-03-26T18:43:48;6.75;;;2.70;;
73951;SDS011;62304;47.662;18.324;2023-03-26T18:46:53;8.10;;;2.80;;
73951;SDS011;62304;47.662;18.324;2023-03-26T18:49:58;6.87;;;3.00;;
73951;SDS011;62304;47.662;18.324;2023-03-26T18:53:04;8.95;;;2.80;;
73951;SDS011;62304;47.662;18.324;2023-03-26T18:59:31;7.90;;;3.67;;
73951;SDS011;62304;47.662;18.324;2023-03-26T19:02:46;7.90;;;3.47;;
73951;SDS011;62304;47.662;18.324;2023-03-26T19:05:53;10.35;;;3.60;;
73951;SDS011;62304;47.662;18.324;2023-03-26T19:09:00;7.00;;;3.37;;
73951;SDS011;62304;47.662;18.324;2023-03-26T19:12:31;9.52;;;3.80;;
73951;SDS011;62304;47.662;18.324;2023-03-26T19:15:39;11.52;;;3.95;;
73951;SDS011;62304;47.662;18.324;2023-03-26T19:18:46;9.63;;;3.67;;
73951;SDS011;62304;47.662;18.324;2023-03-26T19:21:52;7.32;;;3.47;;
73951;SDS011;62304;47.662;18.324;2023-03-26T19:25:01;10.27;;;3.80;;
73951;SDS011;62304;47.662;18.324;2023-03-26T19:28:28;9.95;;;4.45;;
73951;SDS011;62304;47.662;18.324;2023-03-26T19:31:41;5.65;;;2.42;;
73951;SDS011;62304;47.662;18.324;2023-03-26T19:34:46;7.40;;;3.20;;
73951;SDS011;62304;47.662;18.324;2023-03-26T19:37:51;7.35;;;3.00;;
73951;SDS011;62304;47.662;18.324;2023-03-26T19:40:59;11.75;;;4.85;;
73951;SDS011;62304;47.662;18.324;2023-03-26T19:44:12;6.45;;;3.30;;
73951;SDS011;62304;47.662;18.324;2023-03-26T19:47:31;7.97;;;3.60;;
73951;SDS011;62304;47.662;18.324;2023-03-26T19:51:00;8.27;;;4.20;;
73951;SDS011;62304;47.662;18.324;2023-03-26T19:54:13;8.23;;;3.60;;
73951;SDS011;62304;47.662;18.324;2023-03-26T19:57:20;5.12;;;2.10;;
73951;SDS011;62304;47.662;18.324;2023-03-26T20:00:26;4.10;;;0.80;;
73951;SDS011;62304;47.662;18.324;2023-03-26T20:03:40;2.12;;;0.40;;
73951;SDS011;62304;47.662;18.324;2023-03-26T20:06:46;3.23;;;0.40;;
73951;SDS011;62304;47.662;18.324;2023-03-26T20:09:53;2.37;;;0.20;;
73951;SDS011;62304;47.662;18.324;2023-03-26T20:12:58;3.20;;;0.50;;
73951;SDS011;62304;47.662;18.324;2023-03-26T20:16:38;3.15;;;0.65;;
73951;SDS011;62304;47.662;18.324;2023-03-26T20:19:36;2.72;;;0.68;;
73951;SDS011;62304;47.662;18.324;2023-03-26T20:22:42;2.93;;;0.77;;
73951;SDS011;62304;47.662;18.324;2023-03-26T20:25:50;4.12;;;0.70;;
73951;SDS011;62304;47.662;18.324;2023-03-26T20:28:57;3.47;;;1.30;;
73951;SDS011;62304;47.662;18.324;2023-03-26T20:32:01;4.40;;;0.80;;
73951;SDS011;62304;47.662;18.324;2023-03-26T20:35:11;2.90;;;0.60;;
73951;SDS011;62304;47.662;18.324;2023-03-26T20:38:18;3.90;;;1.00;;
73951;SDS011;62304;47.662;18.324;2023-03-26T20:41:31;5.15;;;1.17;;
73951;SDS011;62304;47.662;18.324;2023-03-26T20:44:35;4.55;;;1.60;;
73951;SDS011;62304;47.662;18.324;2023-03-26T20:47:39;5.37;;;1.15;;
73951;SDS011;62304;47.662;18.324;2023-03-26T20:50:44;8.95;;;3.12;;
73951;SDS011;62304;47.662;18.324;2023-03-26T20:53:53;4.97;;;1.63;;
73951;SDS011;62304;47.662;18.324;2023-03-26T20:56:56;5.10;;;1.73;;
73951;SDS011;62304;47.662;18.324;2023-03-26T20:59:59;6.18;;;1.50;;
73951;SDS011;62304;47.662;18.324;2023-03-26T21:03:03;4.57;;;1.23;;
73951;SDS011;62304;47.662;18.324;2023-03-26T21:06:07;4.40;;;1.70;;
73951;SDS011;62304;47.662;18.324;2023-03-26T21:09:17;4.33;;;1.47;;
73951;SDS011;62304;47.662;18.324;2023-03-26T21:12:26;6.10;;;1.20;;
73951;SDS011;62304;47.662;18.324;2023-03-26T21:15:35;4.62;;;1.10;;
73951;SDS011;62304;47.662;18.324;2023-03-26T21:18:39;4.12;;;1.20;;
73951;SDS011;62304;47.662;18.324;2023-03-26T21:22:02;4.60;;;1.30;;
73951;SDS011;62304;47.662;18.324;2023-03-26T21:28:28;3.60;;;0.80;;
73951;SDS011;62304;47.662;18.324;2023-03-26T21:31:46;5.68;;;1.00;;
73951;SDS011;62304;47.662;18.324;2023-03-26T21:34:49;4.45;;;0.95;;
73951;SDS011;62304;47.662;18.324;2023-03-26T21:38:02;6.43;;;1.40;;
73951;SDS011;62304;47.662;18.324;2023-03-26T21:41:06;4.57;;;1.23;;
73951;SDS011;62304;47.662;18.324;2023-03-26T21:44:09;4.70;;;1.30;;
73951;SDS011;62304;47.662;18.324;2023-03-26T21:47:13;7.32;;;2.08;;
73951;SDS011;62304;47.662;18.324;2023-03-26T21:50:17;4.20;;;1.10;;
73951;SDS011;62304;47.662;18.324;2023-03-26T21:53:23;3.50;;;1.10;;
73951;SDS011;62304;47.662;18.324;2023-03-26T22:06:53;5.05;;;1.48;;
73951;SDS011;62304;47.662;18.324;2023-03-26T22:10:02;5.43;;;1.27;;
73951;SDS011;62304;47.662;18.324;2023-03-26T22:13:06;4.03;;;1.10;;
73951;SDS011;62304;47.662;18.324;2023-03-26T22:16:09;4.32;;;1.00;;
73951;SDS011;62304;47.662;18.324;2023-03-26T22:19:13;3.53;;;1.00;;
73951;SDS011;62304;47.662;18.324;2023-03-26T22:22:16;5.55;;;1.35;;
73951;SDS011;62304;47.662;18.324;2023-03-26T22:25:20;6.03;;;1.52;;
73951;SDS011;62304;47.662;18.324;2023-03-26T22:28:24;4.03;;;1.30;;
73951;SDS011;62304;47.662;18.324;2023-03-26T22:31:28;5.30;;;1.23;;
73951;SDS011;62304;47.662;18.324;2023-03-26T22:34:31;3.10;;;1.00;;
73951;SDS011;62304;47.662;18.324;2023-03-26T22:37:36;5.80;;;1.58;;
73951;SDS011;62304;47.662;18.324;2023-03-26T22:40:39;4.60;;;1.42;;
73951;SDS011;62304;47.662;18.324;2023-03-26T22:43:42;4.80;;;1.77;;
73951;SDS011;62304;47.662;18.324;2023-03-26T22:46:48;4.95;;;1.62;;
73951;SDS011;62304;47.662;18.324;2023-03-26T22:49:52;4.60;;;1.48;;
73951;SDS011;62304;47.662;18.324;2023-03-26T22:52:56;4.72;;;1.65;;
73951;SDS011;62304;47.662;18.324;2023-03-26T22:55:59;5.20;;;1.60;;
73951;SDS011;62304;47.662;18.324;2023-03-26T22:59:02;4.90;;;1.60;;
73951;SDS011;62304;47.662;18.324;2023-03-26T23:02:05;4.43;;;1.52;;
73951;SDS011;62304;47.662;18.324;2023-03-26T23:05:12;5.03;;;1.67;;
73951;SDS011;62304;47.662;18.324;2023-03-26T23:08:15;4.50;;;1.50;;
73951;SDS011;62304;47.662;18.324;2023-03-26T23:11:19;5.32;;;1.70;;
73951;SDS011;62304;47.662;18.324;2023-03-26T23:14:23;4.57;;;1.40;;
73951;SDS011;62304;47.662;18.324;2023-03-26T23:17:26;4.07;;;1.50;;
73951;SDS011;62304;47.662;18.324;2023-03-26T23:20:30;4.50;;;1.60;;
73951;SDS011;62304;47.662;18.324;2023-03-26T23:23:39;4.80;;;1.62;;
73951;SDS011;62304;47.662;18.324;2023-03-26T23:26:42;3.47;;;1.33;;
73951;SDS011;62304;47.662;18.324;2023-03-26T23:29:52;7.23;;;1.50;;
73951;SDS011;62304;47.662;18.324;2023-03-26T23:32:56;5.28;;;1.30;;
73951;SDS011;62304;47.662;18.324;2023-03-26T23:36:00;4.95;;;1.87;;
73951;SDS011;62304;47.662;18.324;2023-03-26T23:39:08;5.93;;;1.90;;
73951;SDS011;62304;47.662;18.324;2023-03-26T23:42:18;6.35;;;1.90;;
73951;SDS011;62304;47.662;18.324;2023-03-26T23:45:31;5.80;;;1.80;;
73951;SDS011;62304;47.662;18.324;2023-03-26T23:48:35;5.87;;;2.08;;
73951;SDS011;62304;47.662;18.324;2023-03-26T23:51:38;5.78;;;2.20;;
73951;SDS011;62304;47.662;18.324;2023-03-26T23:54:41;6.12;;;1.85;;
73951;SDS011;62304;47.662;18.324;2023-03-26T23:57:44;4.10;;;1.33;;
